Stone Cabin, Nevada Weather observations

Data are for observation ending at time listed.
 Day   Time    Ave.   Ave.  Ave.  Vector   Max.   Stn.    Total    Solar   Ave.  
  of    of     Air    Rel.  Wind   Wind    Wind   Baro.  Precip.   Rad.    Soil  
Year   Day     Temp.  Hum.  Speed  Dir.    Gust   Pres.                    Temp. 
2016   (PST)    F      %     mph   deg.    mph     mb.     in.     W/m2     F   
------------------------------------------------------------------------------
 146   11:00   52.1    61    7.1   262     19.1    815     0.04     259    55.5
 146   12:00   48.6    70    8.3   281     15.1    818     0.00     266    55.2
 146   13:00   51.6    59    4.8   316     13.9    818     0.00     393    54.7
 146   14:00   56.4    46    3.0   318      9.6    817     0.00     634    54.9
 146   15:00   59.7    38    5.9   291     21.6    817     0.00     806    55.5
 146   16:00   57.3    42    8.3   291     19.2    817     0.00     446    56.2
 146   17:00   52.6    55    3.9    63     10.3    818     0.00     243    56.1
 146   18:00   52.4    55    4.7    54     10.5    818     0.00     276    55.6
 146   19:00   50.4    58    1.2    69      5.4    818     0.00      80    55.2
 146   20:00   48.5    64    0.3     0      2.9    819     0.00       0    54.8
 146   21:00   46.3    68    1.1   302      5.5    820     0.00       0    54.4
 146   22:00   44.1    69    0.5     7      3.9    820     0.00       0    53.9
 146   23:00   40.6    79    0.6   307      2.6    821     0.00       0    53.3
 147    0:00   37.7    82    0.9   309      3.3    822     0.00       0    52.8
 147    1:00   38.7    81    1.3   324      5.5    822     0.00       0    52.3
 147    2:00   36.5    84    0.8     6      3.3    822     0.00       0    51.9
 147    3:00   34.8    87    0.6   242      4.0    821     0.00       0    51.4
 147    4:00   33.3    89    0.5   330      3.1    820     0.00       0    50.9
 147    5:00   34.4    88    1.2   285      3.7    821     0.00       5    50.4
 147    6:00   36.7    86    1.6   305      4.0    821     0.00      23    50.0
 147    7:00   46.6    68    1.4   355      6.4    821     0.00     260    49.9
 147    8:00   53.0    49    4.2    31     11.7    821     0.00     568    50.5
 147    9:00   57.1    40    3.1    20     11.2    820     0.00     787    51.5
 147   10:00   60.0    38    2.9    60      7.3    822     0.00     949    53.0

Return to Stone Cabin, Nevada graphs page.


Western Regional Climate Center,wrcc@dri.edu